Time;durP1;ratioP1;P1;durP2;ratioP2;P2;SDS_P1;SDS_P2;PMS_P1;PMS_P2;Temp;Humidity;BMP_temperature;BMP_pressure;BME280_temperature;BME280_humidity;BME280_pressure;Samples;Min_cycle;Max_cycle;Signal;HPM_P1;HPM_P2
2023/09/19 00:00:08;;;;;;;0.40;0.40;;;;;;;15.99;81.59;94979.94;5050192;28;20712;-75
2023/09/19 00:02:36;;;;;;;0.22;0.22;;;;;;;16.00;81.81;94981.53;5055816;28;20208;-75
2023/09/19 00:05:03;;;;;;;1.00;0.70;;;;;;;15.91;82.07;94972.72;5052465;28;20226;-75
2023/09/19 00:07:30;;;;;;;0.73;0.65;;;;;;;15.87;82.22;94980.03;5050145;28;20602;-75
2023/09/19 00:09:57;;;;;;;1.15;0.63;;;;;;;15.76;82.68;94984.44;5048927;28;20257;-75
2023/09/19 00:12:24;;;;;;;0.68;0.68;;;;;;;15.70;83.03;94977.66;5049361;28;20282;-76
2023/09/19 00:14:52;;;;;;;0.30;0.30;;;;;;;15.76;82.97;94982.50;5049240;28;20200;-75
2023/09/19 00:17:19;;;;;;;0.40;0.40;;;;;;;15.75;83.13;94975.44;5049970;28;20226;-75
2023/09/19 00:19:46;;;;;;;0.25;0.25;;;;;;;15.69;83.64;94981.53;5049766;28;20306;-75
2023/09/19 00:22:15;;;;;;;2.33;1.00;;;;;;;15.58;83.97;94971.13;5049572;28;20203;-75
2023/09/19 00:24:42;;;;;;;0.73;0.73;;;;;;;15.51;84.94;94964.66;5049056;28;20203;-75
2023/09/19 00:27:09;;;;;;;0.98;0.95;;;;;;;15.42;85.73;94964.84;5049511;28;20204;-74
2023/09/19 00:29:35;;;;;;;0.22;0.22;;;;;;;15.46;85.75;94960.25;5049700;28;20243;-74
2023/09/19 00:32:05;;;;;;;0.57;0.43;;;;;;;15.49;85.69;94962.28;5049218;28;20227;-73
2023/09/19 00:34:34;;;;;;;1.60;1.40;;;;;;;15.51;85.61;94965.47;5049411;28;20215;-74
2023/09/19 00:37:00;;;;;;;0.40;0.40;;;;;;;15.49;85.92;94956.81;5049396;28;20206;-73
2023/09/19 00:39:27;;;;;;;0.30;0.30;;;;;;;15.44;86.50;94957.09;5049574;28;20215;-76
2023/09/19 00:41:54;;;;;;;3.30;1.70;;;;;;;15.49;86.53;94950.56;5049339;28;20231;-74
2023/09/19 00:44:23;;;;;;;0.73;0.73;;;;;;;15.44;87.00;94954.34;5049744;28;20290;-75
2023/09/19 00:46:50;;;;;;;0.20;0.20;;;;;;;15.37;87.49;94951.44;5043719;28;20226;-75
2023/09/19 00:49:22;;;;;;;2.30;1.48;;;;;;;15.35;88.01;94955.63;5041525;28;20682;-75
2023/09/19 00:51:49;;;;;;;0.20;0.20;;;;;;;15.29;88.02;94957.84;5053024;28;20212;-76
2023/09/19 00:54:18;;;;;;;0.75;0.35;;;;;;;15.29;88.31;94958.66;5053138;28;20243;-75
2023/09/19 00:56:46;;;;;;;0.40;0.40;;;;;;;15.24;88.84;94955.38;5052523;28;20381;-76
2023/09/19 00:59:13;;;;;;;0.65;0.40;;;;;;;15.20;89.17;94960.72;5053340;28;20588;-75
2023/09/19 01:01:40;;;;;;;0.75;0.50;;;;;;;15.11;90.23;94962.03;5060247;28;20269;-74
2023/09/19 01:04:07;;;;;;;0.30;0.30;;;;;;;15.07;90.27;94953.72;5053379;28;20622;-76
2023/09/19 01:06:36;;;;;;;0.35;0.35;;;;;;;15.07;90.62;94955.66;5054659;28;20269;-75
2023/09/19 01:09:05;;;;;;;0.40;0.40;;;;;;;15.07;90.85;94966.56;5052757;28;20231;-75
2023/09/19 01:11:39;;;;;;;0.30;0.30;;;;;;;15.05;90.89;94960.66;5052482;28;20223;-74
2023/09/19 01:14:21;;;;;;;0.38;0.38;;;;;;;15.00;91.50;94961.72;5052196;28;20666;-75
2023/09/19 01:16:58;;;;;;;2.97;1.30;;;;;;;14.98;91.82;94957.75;5051304;28;20556;-75
2023/09/19 01:20:04;;;;;;;2.13;1.48;;;;;;;14.96;92.17;94963.56;5052948;28;20210;-75
2023/09/19 01:22:45;;;;;;;1.90;1.48;;;;;;;14.83;93.38;94956.56;5050002;28;20206;-73
2023/09/19 01:25:57;;;;;;;2.35;1.35;;;;;;;14.77;94.68;94956.00;5052354;28;20199;-73
2023/09/19 01:28:36;;;;;;;2.60;1.45;;;;;;;14.69;94.82;94964.31;5052563;28;20718;-76
2023/09/19 01:31:09;;;;;;;2.53;1.65;;;;;;;14.68;95.18;94966.25;5051726;28;20211;-75
2023/09/19 01:34:00;;;;;;;0.52;0.52;;;;;;;14.77;95.43;94961.44;5052339;28;20204;-74
2023/09/19 01:36:28;;;;;;;0.20;0.20;;;;;;;14.65;96.51;94963.41;5051865;28;20295;-74
2023/09/19 01:38:56;;;;;;;0.45;0.45;;;;;;;14.62;98.23;94955.94;5052236;28;20614;-74
2023/09/19 01:41:31;;;;;;;0.25;0.25;;;;;;;14.62;98.34;94951.28;5052048;28;20216;-74
2023/09/19 01:44:03;;;;;;;1.88;0.55;;;;;;;14.51;98.89;94950.16;5051567;28;20286;-74
2023/09/19 01:46:36;;;;;;;0.20;0.20;;;;;;;14.49;99.43;94947.78;5052172;28;20286;-74
2023/09/19 01:49:14;;;;;;;0.50;0.50;;;;;;;14.46;99.04;94947.69;5039531;28;20215;-74
2023/09/19 01:51:47;;;;;;;0.52;0.52;;;;;;;14.39;98.92;94952.88;5051767;28;20758;-74
2023/09/19 01:54:19;;;;;;;0.52;0.52;;;;;;;14.34;98.82;94955.88;5051702;28;20210;-74
2023/09/19 01:56:51;;;;;;;3.25;0.80;;;;;;;14.30;98.02;94955.75;5050961;28;20717;-74
2023/09/19 01:59:24;;;;;;;0.28;0.28;;;;;;;14.28;97.94;94954.50;5052347;28;20204;-74
2023/09/19 02:01:54;;;;;;;0.68;0.60;;;;;;;14.20;100.00;94967.91;5056001;28;20208;-74
2023/09/19 02:04:21;;;;;;;0.22;0.22;;;;;;;13.99;100.00;94967.22;5054424;28;20204;-74
2023/09/19 02:06:47;;;;;;;0.65;0.63;;;;;;;14.04;100.00;94963.50;5051524;28;20212;-74
2023/09/19 02:09:16;;;;;;;0.45;0.45;;;;;;;14.14;100.00;94974.72;5051412;28;20295;-74
2023/09/19 02:11:42;;;;;;;0.38;0.38;;;;;;;14.14;100.00;94963.81;5047079;28;20730;-74
2023/09/19 02:14:09;;;;;;;0.43;0.43;;;;;;;14.02;100.00;94966.56;5050904;28;20250;-74
2023/09/19 02:16:37;;;;;;;0.28;0.28;;;;;;;13.95;100.00;94966.31;5051147;28;20216;-74
2023/09/19 02:19:06;;;;;;;0.75;0.75;;;;;;;14.07;100.00;94969.06;5051178;28;20214;-74
2023/09/19 02:21:33;;;;;;;0.30;0.30;;;;;;;14.09;100.00;94966.75;5047037;28;20196;-74
2023/09/19 02:23:59;;;;;;;0.75;0.60;;;;;;;13.92;100.00;94972.47;5042145;28;20655;-74
2023/09/19 02:26:27;;;;;;;0.30;0.30;;;;;;;13.91;100.00;94970.88;5046667;28;20298;-75
2023/09/19 02:28:54;;;;;;;0.52;0.52;;;;;;;13.81;100.00;94974.00;5045219;28;20333;-74
2023/09/19 02:31:20;;;;;;;1.65;0.93;;;;;;;13.69;100.00;94963.13;5046006;28;20234;-74
2023/09/19 02:33:46;;;;;;;0.75;0.75;;;;;;;13.55;100.00;94954.47;5050701;28;20215;-74
2023/09/19 02:36:16;;;;;;;0.73;0.73;;;;;;;13.70;100.00;94953.81;5047436;28;20204;-74
2023/09/19 02:38:43;;;;;;;0.52;0.52;;;;;;;13.79;100.00;94958.03;5045238;28;20261;-74
2023/09/19 02:41:10;;;;;;;0.35;0.35;;;;;;;13.77;100.00;94954.06;5046415;28;20214;-74
2023/09/19 02:43:37;;;;;;;0.35;0.35;;;;;;;13.80;100.00;94946.00;5044162;28;20202;-74
2023/09/19 02:46:04;;;;;;;0.43;0.43;;;;;;;13.91;100.00;94940.91;5045869;28;20567;-74
2023/09/19 02:48:32;;;;;;;0.70;0.70;;;;;;;13.82;100.00;94940.22;5041174;28;20204;-74
2023/09/19 02:50:59;;;;;;;0.85;0.85;;;;;;;13.80;100.00;94940.53;5041199;28;20225;-75
2023/09/19 02:53:27;;;;;;;0.68;0.68;;;;;;;13.80;100.00;94939.78;5051236;28;20211;-75
2023/09/19 02:55:54;;;;;;;0.55;0.55;;;;;;;13.75;100.00;94934.53;5050655;28;20560;-74
2023/09/19 02:58:21;;;;;;;0.40;0.40;;;;;;;13.78;100.00;94933.88;5056205;28;20208;-74
2023/09/19 03:00:49;;;;;;;0.57;0.30;;;;;;;13.79;100.00;94930.00;5051793;28;20203;-74
2023/09/19 03:03:17;;;;;;;0.85;0.73;;;;;;;13.66;100.00;94931.16;5052152;28;20203;-74
2023/09/19 03:05:46;;;;;;;0.52;0.52;;;;;;;13.77;100.00;94924.13;5050398;28;20207;-74
2023/09/19 03:08:14;;;;;;;0.68;0.60;;;;;;;13.83;100.00;94925.47;5050948;28;20656;-74
2023/09/19 03:10:42;;;;;;;1.48;1.02;;;;;;;13.87;100.00;94923.66;5056705;28;20230;-75
2023/09/19 03:13:10;;;;;;;0.80;0.77;;;;;;;13.90;100.00;94928.44;5049985;28;20242;-74
2023/09/19 03:15:38;;;;;;;0.38;0.38;;;;;;;13.84;100.00;94916.94;5050545;28;20316;-74
2023/09/19 03:18:05;;;;;;;0.95;0.55;;;;;;;13.81;100.00;94922.28;5050291;28;20199;-74
2023/09/19 03:20:32;;;;;;;0.50;0.50;;;;;;;13.80;100.00;94926.16;5050367;28;20290;-74
2023/09/19 03:23:00;;;;;;;0.30;0.30;;;;;;;13.87;100.00;94921.72;5049715;28;20207;-74
2023/09/19 03:25:28;;;;;;;3.17;1.52;;;;;;;13.85;100.00;94923.19;5050152;28;20286;-74
2023/09/19 03:27:58;;;;;;;0.50;0.50;;;;;;;13.95;100.00;94920.00;5050118;28;20601;-75
2023/09/19 03:30:26;;;;;;;0.73;0.68;;;;;;;13.95;100.00;94928.19;5050126;28;20570;-74
2023/09/19 03:32:53;;;;;;;1.00;0.93;;;;;;;14.03;100.00;94924.56;5049948;28;20234;-72
2023/09/19 03:35:20;;;;;;;1.33;1.00;;;;;;;14.01;100.00;94920.56;5050204;28;20209;-72
2023/09/19 03:37:47;;;;;;;0.38;0.38;;;;;;;13.98;100.00;94926.69;5049797;28;20238;-72
2023/09/19 03:40:12;;;;;;;0.40;0.40;;;;;;;13.90;100.00;94920.25;5050282;28;20207;-73
2023/09/19 03:42:39;;;;;;;1.33;1.23;;;;;;;13.85;100.00;94917.75;5052813;28;20627;-74
2023/09/19 03:45:11;;;;;;;0.20;0.20;;;;;;;13.80;100.00;94923.44;5050718;28;20663;-72
2023/09/19 03:47:39;;;;;;;1.05;0.77;;;;;;;13.80;100.00;94932.38;5048879;28;20704;-71
2023/09/19 03:50:07;;;;;;;0.38;0.38;;;;;;;13.82;100.00;94935.56;5049335;28;20253;-72
2023/09/19 03:52:34;;;;;;;1.00;0.93;;;;;;;13.66;100.00;94936.59;5049791;28;20599;-72
2023/09/19 03:55:02;;;;;;;0.85;0.85;;;;;;;13.71;100.00;94939.06;5053570;28;20541;-72
2023/09/19 03:57:29;;;;;;;0.20;0.20;;;;;;;13.74;100.00;94946.56;5050503;28;20218;-73
2023/09/19 03:59:56;;;;;;;1.58;0.55;;;;;;;13.78;100.00;94950.22;5049134;28;20207;-77
2023/09/19 04:02:24;;;;;;;0.70;0.70;;;;;;;13.86;100.00;94949.28;5048004;28;20596;-73
2023/09/19 04:04:52;;;;;;;0.50;0.50;;;;;;;13.81;100.00;94944.84;5044698;28;20231;-73
2023/09/19 04:07:22;;;;;;;0.55;0.55;;;;;;;13.92;100.00;94950.66;5049964;28;20215;-73
2023/09/19 04:09:49;;;;;;;0.52;0.52;;;;;;;14.04;100.00;94945.22;5050308;28;20680;-73
2023/09/19 04:12:16;;;;;;;0.68;0.60;;;;;;;14.13;100.00;94951.31;5049744;28;20285;-74
2023/09/19 04:14:43;;;;;;;0.60;0.60;;;;;;;14.21;100.00;94958.56;5048785;28;20243;-75
2023/09/19 04:17:10;;;;;;;0.80;0.80;;;;;;;14.21;100.00;94955.09;5050323;28;20219;-74
2023/09/19 04:19:38;;;;;;;0.70;0.70;;;;;;;14.09;100.00;94961.31;5051253;28;20207;-74
2023/09/19 04:22:05;;;;;;;0.70;0.55;;;;;;;14.05;100.00;94960.44;5053548;28;20653;-74
2023/09/19 04:24:33;;;;;;;0.68;0.50;;;;;;;14.23;100.00;94961.75;5053674;28;20235;-74
2023/09/19 04:27:00;;;;;;;1.20;0.93;;;;;;;14.43;100.00;94954.63;5053514;28;20222;-73
2023/09/19 04:29:29;;;;;;;0.57;0.55;;;;;;;14.83;100.00;94951.91;5053438;28;20210;-73
2023/09/19 04:31:57;;;;;;;1.40;1.30;;;;;;;15.60;100.00;94951.66;5053304;28;20227;-73
2023/09/19 04:34:24;;;;;;;1.50;0.93;;;;;;;16.33;100.00;94942.88;5053572;28;20310;-73
2023/09/19 04:36:52;;;;;;;1.70;1.48;;;;;;;17.08;100.00;94933.56;5053224;28;20295;-73
2023/09/19 04:39:19;;;;;;;1.63;1.52;;;;;;;17.84;100.00;94927.16;5053681;28;20211;-74
2023/09/19 04:41:47;;;;;;;2.95;0.90;;;;;;;18.73;100.00;94925.75;5053123;28;20302;-73
2023/09/19 04:44:15;;;;;;;0.65;0.65;;;;;;;19.55;100.00;94924.78;5053511;28;20673;-74
2023/09/19 04:46:42;;;;;;;0.45;0.45;;;;;;;19.67;100.00;94918.25;5053047;28;20292;-73
2023/09/19 04:49:09;;;;;;;0.75;0.60;;;;;;;18.94;100.00;94920.56;5053275;28;20251;-73
2023/09/19 04:51:36;;;;;;;1.25;0.70;;;;;;;18.38;100.00;94915.06;5053421;28;20231;-72
2023/09/19 04:54:05;;;;;;;2.35;2.05;;;;;;;18.10;100.00;94929.13;5053020;28;20211;-73
2023/09/19 04:56:32;;;;;;;0.52;0.52;;;;;;;18.38;100.00;94924.09;5053423;28;20212;-73
2023/09/19 04:58:59;;;;;;;1.00;0.90;;;;;;;19.29;100.00;94920.16;5052844;28;20223;-73
2023/09/19 05:01:26;;;;;;;3.55;0.82;;;;;;;19.96;100.00;94908.28;5060418;28;20203;-73
2023/09/19 05:03:53;;;;;;;0.73;0.70;;;;;;;21.03;96.93;94896.78;5053486;28;20208;-73
2023/09/19 05:06:21;;;;;;;1.23;0.98;;;;;;;21.59;94.78;94898.16;5052960;28;20212;-74
2023/09/19 05:08:50;;;;;;;1.17;1.10;;;;;;;21.96;69.68;94900.56;5053015;28;20302;-74
2023/09/19 05:11:18;;;;;;;1.02;0.93;;;;;;;21.78;65.28;94892.28;5053085;28;20225;-75
2023/09/19 05:13:45;;;;;;;0.43;0.43;;;;;;;21.94;62.83;94892.69;5052199;28;20243;-74
2023/09/19 05:16:12;;;;;;;2.65;1.70;;;;;;;22.50;60.46;94896.63;5052685;28;20204;-73
2023/09/19 05:18:39;;;;;;;2.63;1.55;;;;;;;23.15;58.08;94898.03;5039942;28;20207;-73
2023/09/19 05:21:06;;;;;;;1.58;1.40;;;;;;;23.83;56.84;94901.22;5047410;28;20633;-74
2023/09/19 05:23:32;;;;;;;2.50;1.83;;;;;;;22.59;58.27;94905.25;5045710;28;20197;-73
2023/09/19 05:25:59;;;;;;;2.30;1.63;;;;;;;22.31;58.82;94889.53;5048950;28;20753;-73
2023/09/19 05:28:28;;;;;;;1.45;1.35;;;;;;;21.72;61.08;94895.81;5043215;28;20632;-73
2023/09/19 05:30:55;;;;;;;0.85;0.85;;;;;;;22.81;58.45;94892.25;5042195;28;20270;-78
2023/09/19 05:33:21;;;;;;;2.28;1.15;;;;;;;22.74;57.12;94894.19;5052733;28;20227;-73
2023/09/19 05:35:53;;;;;;;1.15;1.05;;;;;;;22.16;57.98;94893.47;5047655;28;20249;-73
2023/09/19 05:38:20;;;;;;;0.70;0.70;;;;;;;23.39;55.57;94886.03;5044919;28;20204;-73
2023/09/19 05:40:47;;;;;;;0.55;0.52;;;;;;;24.69;52.99;94882.72;5048227;28;20604;-73
2023/09/19 05:43:15;;;;;;;1.38;0.85;;;;;;;25.27;49.76;94882.88;5046081;28;20207;-73
2023/09/19 05:45:43;;;;;;;1.73;1.58;;;;;;;24.57;51.48;94886.00;5043822;28;20977;-73
2023/09/19 05:48:11;;;;;;;2.28;1.98;;;;;;;23.77;54.45;94877.97;5043710;28;20211;-73
2023/09/19 05:50:38;;;;;;;2.47;1.75;;;;;;;22.72;57.16;94879.97;5046080;28;20246;-73
2023/09/19 05:53:05;;;;;;;2.63;1.60;;;;;;;22.62;57.98;94876.06;5047109;28;20228;-74
2023/09/19 05:55:32;;;;;;;2.08;1.60;;;;;;;22.99;56.96;94883.88;5047427;28;20294;-73
2023/09/19 05:57:59;;;;;;;2.42;1.50;;;;;;;22.58;58.13;94880.81;5048436;28;20211;-71
2023/09/19 06:00:27;;;;;;;2.08;1.08;;;;;;;22.45;59.07;94883.19;5045967;28;20245;-73
2023/09/19 06:02:57;;;;;;;0.60;0.60;;;;;;;22.14;59.51;94882.03;5046894;28;20200;-72
2023/09/19 06:05:30;;;;;;;2.50;1.85;;;;;;;21.80;60.56;94881.63;5048374;28;20204;-72
2023/09/19 06:07:59;;;;;;;0.77;0.52;;;;;;;21.61;61.37;94876.47;5043357;28;20206;-72
2023/09/19 06:10:27;;;;;;;1.58;1.48;;;;;;;21.76;61.91;94874.53;5045946;28;20657;-73
2023/09/19 06:12:55;;;;;;;2.33;1.70;;;;;;;21.91;60.91;94876.91;5044480;28;20231;-74
2023/09/19 06:15:24;;;;;;;1.75;1.33;;;;;;;22.81;58.00;94866.59;5048750;28;20199;-74
2023/09/19 06:17:54;;;;;;;1.08;0.70;;;;;;;23.05;56.41;94871.22;5042742;28;20641;-72
2023/09/19 06:20:23;;;;;;;1.58;1.00;;;;;;;22.97;56.81;94866.91;5046935;28;20614;-72
2023/09/19 06:22:51;;;;;;;0.70;0.70;;;;;;;23.93;54.86;94864.38;5043650;28;20196;-72
2023/09/19 06:25:19;;;;;;;1.45;1.20;;;;;;;23.32;55.27;94869.50;5045332;28;20243;-73
2023/09/19 06:27:47;;;;;;;0.80;0.80;;;;;;;23.64;55.32;94857.50;5040856;28;20210;-78
2023/09/19 06:30:14;;;;;;;1.90;1.60;;;;;;;24.04;53.72;94865.09;5050515;28;20212;-73
2023/09/19 06:32:43;;;;;;;1.25;1.10;;;;;;;24.44;52.78;94860.00;5051150;28;20251;-72
2023/09/19 06:35:12;;;;;;;2.72;1.50;;;;;;;24.54;52.55;94859.13;5046353;28;20214;-74
2023/09/19 06:37:42;;;;;;;0.65;0.65;;;;;;;25.84;49.64;94852.31;5041411;28;20212;-74
2023/09/19 06:40:13;;;;;;;1.17;0.98;;;;;;;26.18;47.95;94850.19;5047006;28;20222;-75
2023/09/19 06:42:42;;;;;;;0.45;0.40;;;;;;;26.96;45.72;94844.44;5044873;28;20250;-74
2023/09/19 06:45:11;;;;;;;0.75;0.70;;;;;;;25.18;49.43;94860.38;5050272;28;20231;-74
2023/09/19 06:47:38;;;;;;;0.45;0.45;;;;;;;22.81;56.30;94872.09;5050151;28;20211;-73
2023/09/19 06:50:08;;;;;;;2.08;1.60;;;;;;;23.08;55.82;94873.19;5050640;28;20257;-74
2023/09/19 06:52:35;;;;;;;1.00;0.90;;;;;;;22.17;58.58;94874.94;5043329;28;20306;-74
2023/09/19 06:55:04;;;;;;;1.80;1.38;;;;;;;22.25;58.92;94869.06;5049146;28;20672;-76
2023/09/19 06:57:31;;;;;;;1.77;1.25;;;;;;;22.66;57.74;94866.59;5049390;28;20204;-73
2023/09/19 06:59:58;;;;;;;1.65;1.20;;;;;;;21.68;60.16;94882.03;5049994;28;20214;-73
2023/09/19 07:02:25;;;;;;;0.80;0.77;;;;;;;21.66;60.99;94887.13;5056241;28;20406;-73
2023/09/19 07:04:52;;;;;;;2.45;1.52;;;;;;;21.26;62.29;94886.28;5045753;28;20207;-72
2023/09/19 07:07:18;;;;;;;2.00;1.42;;;;;;;21.25;63.48;94890.19;5043355;28;20212;-76
2023/09/19 07:09:48;;;;;;;1.00;0.88;;;;;;;21.63;60.86;94885.16;5050692;28;20579;-73
2023/09/19 07:12:17;;;;;;;1.75;1.50;;;;;;;21.19;62.83;94886.22;5050491;28;20219;-72
2023/09/19 07:14:45;;;;;;;1.85;1.45;;;;;;;21.38;62.17;94884.31;5046093;28;20255;-75
2023/09/19 07:17:12;;;;;;;1.67;1.38;;;;;;;21.71;60.89;94886.75;5050292;28;20257;-74
2023/09/19 07:19:39;;;;;;;3.08;1.90;;;;;;;21.64;61.10;94884.75;5043477;28;20203;-74
2023/09/19 07:22:07;;;;;;;1.48;1.38;;;;;;;21.52;62.59;94881.59;5050043;28;20632;-74
2023/09/19 07:24:36;;;;;;;2.08;1.30;;;;;;;21.59;61.50;94890.66;5049578;28;20317;-74
2023/09/19 07:27:05;;;;;;;1.45;1.20;;;;;;;21.26;62.32;94883.50;5049361;28;20226;-74
2023/09/19 07:29:33;;;;;;;2.53;1.30;;;;;;;21.25;62.53;94883.91;5049982;28;20208;-75
2023/09/19 07:32:00;;;;;;;2.30;1.67;;;;;;;21.31;62.02;94887.06;5045518;28;20215;-76
2023/09/19 07:34:26;;;;;;;0.73;0.70;;;;;;;20.84;63.25;94895.13;5048184;28;20318;-74
2023/09/19 07:36:53;;;;;;;1.17;1.08;;;;;;;21.74;61.02;94891.47;5050031;28;20237;-75
2023/09/19 07:39:20;;;;;;;2.50;1.65;;;;;;;22.41;59.60;94882.44;5050163;28;20215;-76
2023/09/19 07:41:48;;;;;;;2.08;1.80;;;;;;;22.77;58.44;94883.16;5049597;28;20216;-75
2023/09/19 07:44:15;;;;;;;1.95;1.52;;;;;;;22.03;59.84;94883.25;5049981;28;20245;-75
2023/09/19 07:46:44;;;;;;;1.63;1.50;;;;;;;22.30;59.17;94878.88;5049907;28;20553;-72
2023/09/19 07:49:10;;;;;;;1.50;1.30;;;;;;;22.54;58.25;94880.84;5047964;28;20207;-73
2023/09/19 07:51:38;;;;;;;0.70;0.70;;;;;;;21.93;61.32;94891.09;5050078;28;20711;-73
2023/09/19 07:54:06;;;;;;;1.00;0.90;;;;;;;21.97;60.80;94886.38;5049172;28;20752;-74
2023/09/19 07:56:33;;;;;;;1.40;1.08;;;;;;;22.39;59.55;94887.56;5053565;28;20200;-74
2023/09/19 07:59:00;;;;;;;1.40;1.30;;;;;;;22.75;59.07;94884.72;5053010;28;20207;-75
2023/09/19 08:01:27;;;;;;;2.05;1.33;;;;;;;22.45;59.44;94891.47;5053322;28;20207;-74
2023/09/19 08:03:55;;;;;;;2.67;1.40;;;;;;;22.67;59.92;94895.78;5049472;28;20290;-74
2023/09/19 08:06:22;;;;;;;1.27;1.10;;;;;;;22.90;58.47;94892.59;5043622;28;20591;-74
2023/09/19 08:08:53;;;;;;;1.88;1.60;;;;;;;22.09;60.50;94887.97;5045190;28;20568;-71
2023/09/19 08:11:21;;;;;;;2.55;1.60;;;;;;;21.97;60.95;94880.88;5049729;28;20204;-71
2023/09/19 08:13:48;;;;;;;1.85;1.52;;;;;;;22.48;59.29;94876.88;5053058;28;20239;-70
2023/09/19 08:16:17;;;;;;;1.80;1.30;;;;;;;22.15;60.06;94869.81;5048424;28;20638;-72
2023/09/19 08:18:48;;;;;;;1.70;1.30;;;;;;;22.16;60.02;94870.63;5053520;28;20290;-71
2023/09/19 08:21:16;;;;;;;0.88;0.88;;;;;;;23.09;57.61;94866.47;5053769;28;20211;-73
2023/09/19 08:23:43;;;;;;;1.80;1.65;;;;;;;23.16;57.18;94857.34;5053787;28;20208;-73
2023/09/19 08:26:09;;;;;;;1.02;0.90;;;;;;;22.89;57.36;94857.06;5048206;28;20303;-71
2023/09/19 08:28:36;;;;;;;0.95;0.75;;;;;;;22.31;59.35;94858.38;5053977;28;20222;-73
2023/09/19 08:31:05;;;;;;;2.90;1.73;;;;;;;22.19;60.24;94854.06;5052992;28;20221;-73
2023/09/19 08:33:33;;;;;;;2.38;1.88;;;;;;;22.42;58.79;94861.91;5053535;28;20255;-73
2023/09/19 08:35:59;;;;;;;1.83;1.27;;;;;;;22.76;58.25;94853.13;5049903;28;20545;-73
2023/09/19 08:38:29;;;;;;;2.10;1.77;;;;;;;22.36;59.36;94869.03;5053466;28;20224;-73
2023/09/19 08:40:59;;;;;;;2.55;1.88;;;;;;;22.29;59.97;94867.06;5053047;28;20207;-72
2023/09/19 08:43:26;;;;;;;2.75;1.70;;;;;;;23.12;58.45;94870.38;5053440;28;20294;-73
2023/09/19 08:46:04;;;;;;;2.55;2.10;;;;;;;23.23;57.01;94865.63;5048723;28;20208;-72
2023/09/19 08:48:32;;;;;;;2.70;1.95;;;;;;;22.87;58.22;94860.22;5053304;28;20290;-72
2023/09/19 08:51:04;;;;;;;0.98;0.88;;;;;;;23.46;57.51;94851.25;5053185;28;20611;-72
2023/09/19 08:53:42;;;;;;;1.85;1.60;;;;;;;24.15;54.64;94855.91;5053112;28;20583;-73
2023/09/19 08:56:13;;;;;;;2.08;1.85;;;;;;;23.89;55.70;94841.50;5047647;28;20210;-73
2023/09/19 08:58:46;;;;;;;2.95;1.90;;;;;;;23.65;55.93;94850.75;5053127;28;20203;-72
2023/09/19 09:01:16;;;;;;;1.73;1.63;;;;;;;23.73;55.93;94852.28;5058136;28;20242;-71
2023/09/19 09:03:47;;;;;;;2.10;1.70;;;;;;;23.40;56.36;94848.91;5055297;28;20607;-71
2023/09/19 09:06:16;;;;;;;4.22;1.90;;;;;;;23.66;56.13;94844.03;5046887;28;20291;-72
2023/09/19 09:08:45;;;;;;;1.90;1.60;;;;;;;23.53;56.77;94840.16;5052721;28;20243;-79
2023/09/19 09:11:12;;;;;;;2.05;1.70;;;;;;;23.65;56.51;94847.97;5052919;28;20254;-79
2023/09/19 09:13:41;;;;;;;1.90;1.70;;;;;;;23.21;57.32;94845.88;5052293;28;20606;-78
2023/09/19 09:16:08;;;;;;;1.55;1.40;;;;;;;22.83;58.47;94842.88;5047230;28;20218;-77
2023/09/19 09:18:34;;;;;;;3.38;2.40;;;;;;;22.79;58.29;94842.13;5039713;28;20204;-79
2023/09/19 09:21:01;;;;;;;2.97;1.67;;;;;;;22.90;59.08;94836.53;5052380;28;20207;-79
2023/09/19 09:23:30;;;;;;;2.78;2.08;;;;;;;23.61;57.41;94827.88;5052450;28;20215;-78
2023/09/19 09:26:01;;;;;;;2.22;1.75;;;;;;;24.28;55.29;94829.31;5047232;28;20208;-79
2023/09/19 09:28:30;;;;;;;2.15;1.70;;;;;;;24.84;54.29;94821.59;5052712;28;20234;-78
2023/09/19 09:30:58;;;;;;;2.28;1.90;;;;;;;23.87;55.81;94821.75;5052191;28;20212;-78
2023/09/19 09:33:25;;;;;;;3.25;2.30;;;;;;;23.11;56.87;94825.38;5052356;28;20304;-78
2023/09/19 09:35:56;;;;;;;2.30;1.77;;;;;;;22.84;58.52;94822.34;5048319;28;20245;-78
2023/09/19 09:38:27;;;;;;;2.05;1.85;;;;;;;23.20;58.10;94822.19;5052737;28;20663;-78
2023/09/19 09:40:59;;;;;;;3.53;2.05;;;;;;;23.70;57.10;94817.91;5051903;28;20262;-78
2023/09/19 09:43:30;;;;;;;3.00;1.77;;;;;;;23.79;55.51;94809.13;5051937;28;20253;-78
2023/09/19 09:49:18;;;;;;;6.95;2.25;;;;;;;24.84;53.60;94799.41;5048224;28;20246;-80
2023/09/19 09:51:48;;;;;;;2.22;2.00;;;;;;;25.02;52.87;94795.22;5051951;28;20207;-78
2023/09/19 09:54:17;;;;;;;1.92;1.55;;;;;;;24.34;53.98;94791.66;5049378;28;20281;-78
2023/09/19 09:56:59;;;;;;;2.50;1.67;;;;;;;24.35;53.47;94796.00;5047242;28;20391;-79
2023/09/19 09:59:50;;;;;;;2.28;1.75;;;;;;;24.63;53.87;94790.13;5051414;28;20295;-78
2023/09/19 10:02:24;;;;;;;1.85;1.60;;;;;;;25.20;51.75;94783.91;5059595;28;20680;-79
2023/09/19 10:05:09;;;;;;;2.47;1.75;;;;;;;25.37;52.18;94777.31;5048586;28;20269;-78
2023/09/19 10:07:40;;;;;;;1.63;1.42;;;;;;;25.70;50.38;94788.72;5048901;28;20627;-79
2023/09/19 10:10:15;;;;;;;2.20;1.63;;;;;;;25.18;51.80;94786.28;5051403;28;20214;-78
2023/09/19 10:12:47;;;;;;;2.00;1.58;;;;;;;24.67;52.06;94793.66;5051050;28;20239;-77
2023/09/19 10:15:20;;;;;;;2.05;1.63;;;;;;;23.97;54.55;94787.66;5048494;28;20215;-77
2023/09/19 10:17:47;;;;;;;1.73;1.42;;;;;;;24.05;54.55;94786.38;5050019;28;20208;-78
2023/09/19 10:20:23;;;;;;;2.88;1.75;;;;;;;24.45;53.21;94784.03;5050843;28;20215;-78
2023/09/19 10:22:57;;;;;;;2.33;1.75;;;;;;;24.53;54.01;94790.28;5050507;28;21014;-77
2023/09/19 10:25:28;;;;;;;2.10;1.70;;;;;;;24.71;53.05;94779.78;5047098;28;20294;-79
2023/09/19 10:27:59;;;;;;;2.15;1.70;;;;;;;24.35;53.85;94782.16;5037042;28;20202;-78
2023/09/19 10:30:30;;;;;;;1.88;1.60;;;;;;;24.65;52.77;94782.22;5051391;28;20636;-74
2023/09/19 10:33:02;;;;;;;1.98;1.60;;;;;;;24.58;53.24;94787.06;5050502;28;20208;-74
2023/09/19 10:35:30;;;;;;;2.00;1.45;;;;;;;24.36;53.68;94761.56;5046626;28;20560;-73
2023/09/19 10:38:02;;;;;;;1.90;1.48;;;;;;;24.92;52.72;94770.38;5050644;28;20211;-74
2023/09/19 10:40:33;;;;;;;1.48;1.38;;;;;;;25.84;51.34;94757.94;5050852;28;20295;-74
2023/09/19 10:43:05;;;;;;;2.47;1.95;;;;;;;25.23;52.25;94758.09;5050744;28;20289;-74
2023/09/19 10:45:34;;;;;;;1.85;1.48;;;;;;;25.71;51.77;94768.09;5046432;28;20231;-73
2023/09/19 10:48:03;;;;;;;1.90;1.70;;;;;;;25.44;50.93;94766.09;5049608;28;20206;-79
2023/09/19 10:50:34;;;;;;;4.10;2.00;;;;;;;25.68;50.26;94760.63;5049192;28;20238;-74
2023/09/19 10:53:07;;;;;;;2.08;1.52;;;;;;;26.34;48.54;94760.66;5049985;28;20253;-74
2023/09/19 10:55:35;;;;;;;3.47;2.22;;;;;;;26.46;48.86;94750.91;5045530;28;20200;-71
2023/09/19 10:58:03;;;;;;;1.58;1.35;;;;;;;26.20;49.59;94753.34;5049603;28;20294;-73
2023/09/19 11:00:50;;;;;;;1.80;1.60;;;;;;;26.74;48.86;94742.00;5050223;28;20232;-75
2023/09/19 11:03:20;;;;;;;2.78;1.60;;;;;;;26.09;49.32;94750.00;5045112;28;20231;-77
2023/09/19 11:06:09;;;;;;;2.00;1.70;;;;;;;25.13;51.10;94750.72;5047482;28;20207;-77
2023/09/19 11:08:57;;;;;;;2.17;1.58;;;;;;;25.13;51.50;94756.28;5049672;28;20216;-75
2023/09/19 11:11:50;;;;;;;3.60;1.60;;;;;;;25.14;52.06;94749.53;5050494;28;20212;-74
2023/09/19 11:14:44;;;;;;;1.73;1.45;;;;;;;24.97;51.82;94753.34;5045141;28;20242;-74
2023/09/19 11:17:45;;;;;;;2.28;1.70;;;;;;;25.77;49.79;94739.44;5045567;28;20208;-75
2023/09/19 11:20:39;;;;;;;1.90;1.55;;;;;;;26.11;49.39;94735.66;5037119;28;20213;-77
2023/09/19 11:23:18;;;;;;;2.60;1.75;;;;;;;26.55;49.78;94737.22;5049960;28;20203;-76
2023/09/19 11:25:48;;;;;;;2.63;1.50;;;;;;;26.48;48.06;94731.81;5046681;28;20203;-76
2023/09/19 11:28:33;;;;;;;1.95;1.63;;;;;;;25.55;50.09;94737.41;5049778;28;20713;-74
2023/09/19 11:31:00;;;;;;;2.08;1.63;;;;;;;25.78;49.54;94731.91;5049779;28;20207;-74
2023/09/19 11:33:33;;;;;;;1.50;1.40;;;;;;;25.89;49.20;94734.47;5049601;28;20318;-76
2023/09/19 11:36:00;;;;;;;1.50;1.40;;;;;;;25.76;49.54;94725.97;5046366;28;20246;-75
2023/09/19 11:39:08;;;;;;;1.52;1.40;;;;;;;26.41;48.95;94715.28;5049902;28;20605;-76
2023/09/19 11:41:38;;;;;;;1.70;1.55;;;;;;;26.60;48.12;94711.72;5039249;28;20204;-73
2023/09/19 11:44:38;;;;;;;1.75;1.55;;;;;;;27.01;46.80;94708.47;5048406;28;20272;-73
2023/09/19 11:47:06;;;;;;;1.88;1.67;;;;;;;27.05;47.70;94692.50;5028708;28;20318;-73